createdAt,value
2019-02-28T00:01:46.499Z,96375.31
2019-02-28T00:04:13.763Z,96366.14
2019-02-28T00:06:44.049Z,96356.92
2019-02-28T00:09:09.843Z,96352.17
2019-02-28T00:11:39.527Z,96347.11
2019-02-28T00:14:06.090Z,96345.98
2019-02-28T00:16:35.635Z,96350.08
2019-02-28T00:19:02.549Z,96347.84
2019-02-28T00:21:29.894Z,96339.91
2019-02-28T00:23:57.592Z,96336.95
2019-02-28T00:26:24.910Z,96329.67
2019-02-28T00:28:52.200Z,96338.80
2019-02-28T00:31:19.246Z,96336.27
2019-02-28T00:33:46.389Z,96335.22
2019-02-28T00:36:16.327Z,96335.98
2019-02-28T00:38:42.504Z,96329.03
2019-02-28T00:41:10.261Z,96329.84
2019-02-28T00:43:37.273Z,96326.94
2019-02-28T00:46:09.672Z,96325.27
2019-02-28T00:48:33.678Z,96324.20
2019-02-28T00:51:01.004Z,96323.66
2019-02-28T00:53:28.046Z,96322.42
2019-02-28T00:55:55.098Z,96318.88
2019-02-28T00:58:22.475Z,96314.30
2019-02-28T01:00:49.831Z,96317.06
2019-02-28T01:03:17.118Z,96305.31
2019-02-28T01:05:44.155Z,96307.00
2019-02-28T01:08:11.526Z,96301.78
2019-02-28T01:10:39.263Z,96302.42
2019-02-28T01:13:06.998Z,96300.12
2019-02-28T01:15:34.370Z,96301.02
2019-02-28T01:18:01.619Z,96288.47
2019-02-28T01:20:28.874Z,96291.59
2019-02-28T01:22:58.571Z,96290.72
2019-02-28T01:25:24.938Z,96283.69
2019-02-28T01:27:53.019Z,96282.74
2019-02-28T01:30:20.449Z,96284.97
2019-02-28T01:32:50.916Z,96289.47
2019-02-28T01:35:16.903Z,96285.45
2019-02-28T01:37:44.191Z,96277.05
2019-02-28T01:40:11.526Z,96271.53
2019-02-28T01:42:40.006Z,96272.55
2019-02-28T01:45:09.975Z,96276.03
2019-02-28T01:47:36.151Z,96263.92
2019-02-28T01:50:03.193Z,96266.31
2019-02-28T01:52:30.252Z,96263.83
2019-02-28T01:54:58.574Z,96254.31
2019-02-28T01:57:26.449Z,96261.48
2019-02-28T01:59:53.849Z,96258.28
2019-02-28T02:02:21.182Z,96252.14
2019-02-28T02:04:48.229Z,96248.17
2019-02-28T02:07:15.283Z,96245.83
2019-02-28T02:09:45.892Z,96245.91
2019-02-28T02:12:11.348Z,96244.13
2019-02-28T02:14:38.390Z,96251.22
2019-02-28T02:17:05.722Z,96242.70
2019-02-28T02:19:33.078Z,96238.76
2019-02-28T02:22:00.122Z,96232.44
2019-02-28T02:24:27.962Z,96224.38
2019-02-28T02:26:56.293Z,96231.18
2019-02-28T02:29:23.351Z,96232.30
2019-02-28T02:31:50.410Z,96222.52
2019-02-28T02:34:17.697Z,96220.98
2019-02-28T02:36:45.075Z,96220.61
2019-02-28T02:39:16.438Z,96223.80
2019-02-28T02:41:41.443Z,96216.88
2019-02-28T02:44:08.499Z,96214.76
2019-02-28T02:46:43.027Z,96215.86
2019-02-28T02:49:10.163Z,96208.55
2019-02-28T02:51:37.205Z,96213.27
2019-02-28T02:54:04.224Z,96208.31
2019-02-28T02:56:40.465Z,96211.63
2019-02-28T02:59:02.370Z,96208.16
2019-02-28T03:01:29.441Z,96204.27
2019-02-28T03:03:56.741Z,96210.13
2019-02-28T03:06:23.898Z,96212.35
2019-02-28T03:08:50.949Z,96200.80
2019-02-28T03:11:19.061Z,96203.93
2019-02-28T03:13:46.358Z,96201.62
2019-02-28T03:16:13.718Z,96196.13
2019-02-28T03:18:40.768Z,96185.34
2019-02-28T03:21:07.799Z,96188.29
2019-02-28T03:23:39.836Z,96192.47
2019-02-28T03:26:06.880Z,96183.33
2019-02-28T03:28:33.335Z,96181.63
2019-02-28T03:31:11.657Z,96176.78
2019-02-28T03:33:29.805Z,96178.06
2019-02-28T03:35:56.848Z,96170.92
2019-02-28T03:38:24.210Z,96166.44
2019-02-28T03:40:51.239Z,96169.33
2019-02-28T03:43:18.294Z,96170.81
2019-02-28T03:45:45.588Z,96164.58
2019-02-28T03:48:12.715Z,96169.19
2019-02-28T03:50:39.755Z,96160.95
2019-02-28T03:53:07.110Z,96161.55
2019-02-28T03:55:40.035Z,96153.47
2019-02-28T03:58:05.423Z,96161.40
2019-02-28T04:00:33.926Z,96159.61
2019-02-28T04:03:01.444Z,96156.50
2019-02-28T04:05:28.667Z,96155.77
2019-02-28T04:07:55.699Z,96153.76
2019-02-28T04:10:23.125Z,96150.20
2019-02-28T04:12:50.184Z,96144.48
2019-02-28T04:15:17.506Z,96146.35
2019-02-28T04:17:44.814Z,96140.61
2019-02-28T04:20:13.221Z,96142.55
2019-02-28T04:22:40.594Z,96141.06
2019-02-28T04:25:07.647Z,96139.79
2019-02-28T04:27:34.997Z,96146.69
2019-02-28T04:30:06.200Z,96135.80
2019-02-28T04:32:31.031Z,96143.80
2019-02-28T04:34:58.081Z,96141.27
2019-02-28T04:37:25.120Z,96131.13
2019-02-28T04:39:53.316Z,96126.53
2019-02-28T04:42:21.380Z,96133.16
2019-02-28T04:44:49.250Z,96138.66
2019-02-28T04:47:17.422Z,96140.45
2019-02-28T04:49:44.778Z,96137.66
2019-02-28T04:52:12.786Z,96139.27
2019-02-28T04:54:40.327Z,96140.90
2019-02-28T04:57:07.367Z,96139.30
2019-02-28T04:59:34.941Z,96147.50
2019-02-28T05:02:02.269Z,96144.69
2019-02-28T05:04:29.320Z,96142.00
2019-02-28T05:06:56.364Z,96147.05
2019-02-28T05:09:23.397Z,96144.87
2019-02-28T05:11:50.767Z,96136.45
2019-02-28T05:14:23.387Z,96134.16
2019-02-28T05:16:47.514Z,96128.39
2019-02-28T05:19:15.444Z,96125.31
2019-02-28T05:21:42.540Z,96125.84
2019-02-28T05:24:09.526Z,96120.45
2019-02-28T05:26:36.867Z,96124.86
2019-02-28T05:29:04.028Z,96118.28
2019-02-28T05:31:31.078Z,96124.28
2019-02-28T05:33:59.240Z,96125.34
2019-02-28T05:36:26.290Z,96125.35
2019-02-28T05:38:56.691Z,96116.30
2019-02-28T05:41:22.718Z,96116.31
2019-02-28T05:43:50.505Z,96113.70
2019-02-28T05:46:20.293Z,96116.33
2019-02-28T05:48:46.932Z,96114.95
2019-02-28T05:51:14.239Z,96125.26
2019-02-28T05:53:42.635Z,96127.23
2019-02-28T05:56:09.803Z,96126.08
2019-02-28T05:58:37.174Z,96129.80
2019-02-28T06:01:05.585Z,96126.11
2019-02-28T06:03:32.642Z,96127.42
2019-02-28T06:05:59.954Z,96124.69
2019-02-28T06:08:27.309Z,96120.97
2019-02-28T06:10:56.107Z,96130.11
2019-02-28T06:13:23.089Z,96128.79
2019-02-28T06:15:50.500Z,96124.57
2019-02-28T06:18:17.855Z,96131.73
2019-02-28T06:20:44.902Z,96133.54
2019-02-28T06:23:12.191Z,96136.14
2019-02-28T06:25:39.240Z,96141.03
2019-02-28T06:28:06.581Z,96132.39
2019-02-28T06:30:33.918Z,96143.16
2019-02-28T06:33:00.964Z,96137.78
2019-02-28T06:35:28.325Z,96134.85
2019-02-28T06:37:55.445Z,96138.13
2019-02-28T06:40:22.825Z,96146.92
2019-02-28T06:42:50.182Z,96157.92
2019-02-28T06:45:17.230Z,96152.59
2019-02-28T06:47:47.972Z,96152.74
2019-02-28T06:50:13.798Z,96147.61
2019-02-28T06:52:40.947Z,96154.41
2019-02-28T06:55:08.290Z,96153.60
2019-02-28T06:57:35.604Z,96157.95
2019-02-28T07:00:02.643Z,96160.14
2019-02-28T07:02:31.438Z,96162.75
2019-02-28T07:04:58.425Z,96162.02
2019-02-28T07:07:25.479Z,96163.60
2019-02-28T07:09:52.826Z,96161.38
2019-02-28T07:12:20.181Z,96158.27
2019-02-28T07:14:49.331Z,96161.11
2019-02-28T07:17:16.293Z,96163.91
2019-02-28T07:19:43.323Z,96165.34
2019-02-28T07:22:10.738Z,96160.83
2019-02-28T07:24:38.233Z,96157.11
2019-02-28T07:27:05.321Z,96151.80
2019-02-28T07:29:32.356Z,96151.65
2019-02-28T07:32:01.222Z,96153.55
2019-02-28T07:34:28.562Z,96145.23
2019-02-28T07:36:55.618Z,96150.19
2019-02-28T07:39:22.931Z,96160.54
2019-02-28T07:41:49.987Z,96164.53
2019-02-28T07:44:21.262Z,96163.47
2019-02-28T07:46:46.095Z,96174.05
2019-02-28T07:49:13.149Z,96163.87
2019-02-28T07:51:40.439Z,96162.56
2019-02-28T07:54:07.777Z,96163.81
2019-02-28T07:56:35.137Z,96164.67
2019-02-28T07:59:05.335Z,96167.05
2019-02-28T08:01:30.929Z,96169.40
2019-02-28T08:03:58.324Z,96168.44
2019-02-28T08:06:25.372Z,96161.31
2019-02-28T08:08:52.730Z,96164.69
2019-02-28T08:11:20.838Z,96168.27
2019-02-28T08:13:48.361Z,96172.81
2019-02-28T08:16:15.653Z,96169.09
2019-02-28T08:18:42.969Z,96172.28
2019-02-28T08:21:10.041Z,96173.65
2019-02-28T08:23:37.674Z,96173.21
2019-02-28T08:26:05.105Z,96175.37
2019-02-28T08:28:35.834Z,96169.34
2019-02-28T08:31:00.895Z,96171.06
2019-02-28T08:33:27.947Z,96174.30
2019-02-28T08:35:55.280Z,96176.58
2019-02-28T08:38:23.565Z,96178.05
2019-02-28T08:40:51.665Z,96182.37
2019-02-28T08:43:26.850Z,96176.70
2019-02-28T08:45:47.543Z,96183.36
2019-02-28T08:48:14.593Z,96185.31
2019-02-28T08:50:41.640Z,96181.75
2019-02-28T08:53:08.680Z,96180.34
2019-02-28T08:55:38.437Z,96176.91
2019-02-28T08:58:06.463Z,96181.97
2019-02-28T09:00:33.501Z,96183.29
2019-02-28T09:03:01.059Z,96180.16
2019-02-28T09:05:30.078Z,96176.06
2019-02-28T09:07:58.280Z,96182.63
2019-02-28T09:10:26.747Z,96181.06
2019-02-28T09:12:54.021Z,96171.24
2019-02-28T09:15:21.081Z,96180.64
2019-02-28T09:17:48.122Z,96165.11
2019-02-28T09:20:15.178Z,96161.67
2019-02-28T09:22:42.511Z,96168.49
2019-02-28T09:25:10.635Z,96157.20
2019-02-28T09:27:38.849Z,96166.00
2019-02-28T09:30:06.679Z,96175.20
2019-02-28T09:32:33.798Z,96170.18
2019-02-28T09:35:02.572Z,96177.69
2019-02-28T09:37:30.499Z,96182.98
2019-02-28T09:39:57.872Z,96175.18
2019-02-28T09:42:24.919Z,96174.04
2019-02-28T09:44:51.977Z,96169.91
2019-02-28T09:47:19.023Z,96179.23
2019-02-28T09:49:47.155Z,96176.13
2019-02-28T09:52:15.382Z,96178.70
2019-02-28T09:54:42.435Z,96163.59
2019-02-28T09:57:09.771Z,96166.05
2019-02-28T09:59:37.831Z,96162.25
2019-02-28T10:02:08.417Z,96166.06
2019-02-28T10:04:36.136Z,96170.17
2019-02-28T10:07:03.513Z,96172.37
2019-02-28T10:09:30.569Z,96171.42
2019-02-28T10:11:57.891Z,96182.77
2019-02-28T10:14:25.739Z,96179.77
2019-02-28T10:16:53.983Z,96177.80
2019-02-28T10:19:21.126Z,96162.78
2019-02-28T10:21:51.847Z,96173.86
2019-02-28T10:24:17.046Z,96166.45
2019-02-28T10:26:44.097Z,96173.18
2019-02-28T10:29:11.450Z,96169.90
2019-02-28T10:31:38.673Z,96181.41
2019-02-28T10:34:05.726Z,96166.73
2019-02-28T10:36:32.772Z,96166.53
2019-02-28T10:39:02.746Z,96173.22
2019-02-28T10:41:31.766Z,96170.92
2019-02-28T10:43:58.810Z,96161.19
2019-02-28T10:46:25.865Z,96160.30
2019-02-28T10:48:53.234Z,96164.50
2019-02-28T10:51:20.286Z,96172.18
2019-02-28T10:53:47.330Z,96163.67
2019-02-28T10:56:14.382Z,96165.78
2019-02-28T10:58:41.733Z,96167.70
2019-02-28T11:01:09.024Z,96157.48
2019-02-28T11:03:36.107Z,96175.16
2019-02-28T11:06:03.491Z,96167.47
2019-02-28T11:08:30.540Z,96164.73
2019-02-28T11:10:57.894Z,96152.64
2019-02-28T11:13:25.353Z,96148.42
2019-02-28T11:15:52.415Z,96140.92
2019-02-28T11:18:19.454Z,96131.48
2019-02-28T11:20:46.826Z,96128.38
2019-02-28T11:23:17.963Z,96132.91
2019-02-28T11:25:45.046Z,96120.20
2019-02-28T11:28:12.349Z,96122.11
2019-02-28T11:30:44.375Z,96121.04
2019-02-28T11:33:08.450Z,96111.59
2019-02-28T11:35:35.503Z,96121.58
2019-02-28T11:38:04.840Z,96125.23
2019-02-28T11:40:31.631Z,96121.72
2019-02-28T11:42:59.362Z,96118.19
2019-02-28T11:45:27.674Z,96116.16
2019-02-28T11:47:54.730Z,96108.74
2019-02-28T11:50:21.782Z,96104.09
2019-02-28T11:52:49.194Z,96091.05
2019-02-28T11:55:16.878Z,96094.23
2019-02-28T11:57:45.286Z,96094.89
2019-02-28T12:00:13.463Z,96091.48
2019-02-28T12:02:40.821Z,96099.08
2019-02-28T12:05:07.857Z,96092.72
2019-02-28T12:07:35.708Z,96096.50
2019-02-28T12:10:03.916Z,96087.14
2019-02-28T12:12:31.295Z,96098.87
2019-02-28T12:15:02.441Z,96087.38
2019-02-28T12:17:28.559Z,96086.05
2019-02-28T12:19:56.127Z,96082.20
2019-02-28T12:22:23.183Z,96085.25
2019-02-28T12:24:50.528Z,96080.36
2019-02-28T12:27:17.830Z,96080.64
2019-02-28T12:29:45.584Z,96076.41
2019-02-28T12:32:13.629Z,96078.39
2019-02-28T12:34:40.976Z,96065.16
2019-02-28T12:37:09.007Z,96074.27
2019-02-28T12:39:36.504Z,96065.17
2019-02-28T12:42:04.369Z,96061.84
2019-02-28T12:44:31.418Z,96061.59
2019-02-28T12:46:58.470Z,96059.55
2019-02-28T12:49:27.572Z,96052.68
2019-02-28T12:51:54.259Z,96052.34
2019-02-28T12:54:21.557Z,96061.70
2019-02-28T12:56:48.928Z,96065.05
2019-02-28T12:59:15.949Z,96063.56
2019-02-28T13:01:43.312Z,96059.48
2019-02-28T13:04:10.352Z,96061.05
2019-02-28T13:06:37.735Z,96066.30
2019-02-28T13:09:04.777Z,96053.41
2019-02-28T13:11:35.834Z,96042.05
2019-02-28T13:14:02.942Z,96045.11
2019-02-28T13:16:30.536Z,96046.53
2019-02-28T13:18:57.591Z,96043.70
2019-02-28T13:21:24.929Z,96046.28
2019-02-28T13:23:51.970Z,96043.91
2019-02-28T13:26:19.323Z,96033.95
2019-02-28T13:28:46.697Z,96040.93
2019-02-28T13:31:14.040Z,96024.73
2019-02-28T13:33:41.096Z,96015.60
2019-02-28T13:36:08.172Z,96023.04
2019-02-28T13:38:35.485Z,96014.61
2019-02-28T13:41:02.524Z,96002.26
2019-02-28T13:43:31.966Z,96007.94
2019-02-28T13:45:58.674Z,96014.00
2019-02-28T13:48:30.004Z,96002.41
2019-02-28T13:50:55.508Z,95998.77
2019-02-28T13:53:23.502Z,96001.90
2019-02-28T13:55:52.680Z,96002.55
2019-02-28T13:58:21.577Z,95986.19
2019-02-28T14:00:49.714Z,95985.47
2019-02-28T14:03:17.188Z,95977.08
2019-02-28T14:05:44.676Z,95979.88
2019-02-28T14:08:12.359Z,95983.55
2019-02-28T14:10:39.803Z,95981.72
2019-02-28T14:13:06.859Z,95984.31
2019-02-28T14:15:33.901Z,95990.22
2019-02-28T14:18:01.213Z,95987.23
2019-02-28T14:20:28.473Z,95995.84
2019-02-28T14:22:55.881Z,95988.16
2019-02-28T14:25:23.216Z,95983.42
2019-02-28T14:27:50.518Z,95987.71
2019-02-28T14:30:19.642Z,95991.77
2019-02-28T14:32:46.864Z,95988.28
2019-02-28T14:35:14.189Z,95985.55
2019-02-28T14:37:41.322Z,95983.03
2019-02-28T14:40:08.678Z,95981.33
2019-02-28T14:42:35.735Z,95977.78
2019-02-28T14:45:03.975Z,95977.04
2019-02-28T14:47:31.583Z,95969.63
2019-02-28T14:49:58.934Z,95975.14
2019-02-28T14:52:25.976Z,95968.01
2019-02-28T14:54:57.081Z,95960.30
2019-02-28T14:57:23.157Z,95964.65
2019-02-28T14:59:50.262Z,95965.52
2019-02-28T15:02:17.554Z,95970.72
2019-02-28T15:04:45.790Z,95966.44
2019-02-28T15:07:13.297Z,95959.03
2019-02-28T15:09:40.351Z,95951.28
2019-02-28T15:12:07.675Z,95947.42
2019-02-28T15:14:35.032Z,95945.29
2019-02-28T15:17:06.735Z,95946.21
2019-02-28T15:19:31.484Z,95942.88
2019-02-28T15:21:58.834Z,95947.25
2019-02-28T15:24:26.955Z,95942.39
2019-02-28T15:26:53.995Z,95940.77
2019-02-28T15:29:23.471Z,95942.00
2019-02-28T15:31:50.118Z,95939.88
2019-02-28T15:34:17.456Z,95932.48
2019-02-28T15:36:44.563Z,95942.84
2019-02-28T15:39:12.599Z,95931.20
2019-02-28T15:41:39.939Z,95941.73
2019-02-28T15:44:07.284Z,95937.59
2019-02-28T15:46:36.005Z,95940.34
2019-02-28T15:49:03.175Z,95940.86
2019-02-28T15:51:30.356Z,95947.95
2019-02-28T15:53:57.446Z,95939.68
2019-02-28T15:56:24.626Z,95948.91
2019-02-28T15:58:51.679Z,95944.85
2019-02-28T16:01:18.718Z,95951.44
2019-02-28T16:03:48.351Z,95947.58
2019-02-28T16:06:16.313Z,95954.88
2019-02-28T16:08:46.789Z,95957.30
2019-02-28T16:11:12.595Z,95947.17
2019-02-28T16:13:39.948Z,95944.94
2019-02-28T16:16:06.995Z,95952.33
2019-02-28T16:18:34.052Z,95938.16
2019-02-28T16:21:03.677Z,95954.05
2019-02-28T16:23:31.087Z,95937.89
2019-02-28T16:25:58.466Z,95950.94
2019-02-28T16:28:25.826Z,95961.53
2019-02-28T16:30:52.881Z,95963.84
2019-02-28T16:33:20.820Z,95979.17
2019-02-28T16:35:50.463Z,95970.41
2019-02-28T16:38:18.315Z,95975.22
2019-02-28T16:40:45.448Z,95978.77
2019-02-28T16:43:13.230Z,95982.59
2019-02-28T16:45:41.065Z,95985.80
2019-02-28T16:48:09.001Z,95985.59
2019-02-28T16:50:36.055Z,95997.55
2019-02-28T16:53:03.367Z,95995.84
2019-02-28T16:55:31.040Z,96008.02
2019-02-28T16:57:59.100Z,95993.08
2019-02-28T17:00:26.154Z,95991.95
2019-02-28T17:02:53.509Z,96007.08
2019-02-28T17:05:26.600Z,96010.08
2019-02-28T17:07:49.313Z,96005.45
2019-02-28T17:10:16.435Z,96014.28
2019-02-28T17:12:43.717Z,96009.83
2019-02-28T17:15:10.774Z,96017.13
2019-02-28T17:17:38.144Z,96021.12
2019-02-28T17:20:07.162Z,96020.09
2019-02-28T17:22:34.600Z,96026.25
2019-02-28T17:25:01.972Z,96026.85
2019-02-28T17:27:29.327Z,96028.29
2019-02-28T17:29:57.653Z,96041.45
2019-02-28T17:32:28.108Z,96041.00
2019-02-28T17:34:55.988Z,96040.42
2019-02-28T17:37:25.866Z,96040.64
2019-02-28T17:39:52.541Z,96042.13
2019-02-28T17:42:19.891Z,96049.09
2019-02-28T17:44:47.195Z,96055.00
2019-02-28T17:47:14.470Z,96056.03
2019-02-28T17:49:41.735Z,96053.77
2019-02-28T17:52:12.210Z,96064.11
2019-02-28T17:55:01.222Z,96061.56
2019-02-28T17:57:29.477Z,96062.27
2019-02-28T17:59:56.708Z,96067.30
2019-02-28T18:02:25.003Z,96072.25
2019-02-28T18:05:03.866Z,96075.22
2019-02-28T18:10:15.727Z,96083.34
2019-02-28T18:12:44.319Z,96089.13
2019-02-28T18:15:12.924Z,96075.31
2019-02-28T18:17:40.147Z,96081.69
2019-02-28T18:20:07.379Z,96085.48
2019-02-28T18:22:35.163Z,96089.44
2019-02-28T18:25:03.113Z,96091.09
2019-02-28T18:27:32.028Z,96096.00
2019-02-28T18:29:59.388Z,96086.06
2019-02-28T18:32:29.735Z,96098.50
2019-02-28T18:34:56.223Z,96098.33
2019-02-28T18:37:24.525Z,96093.09
2019-02-28T18:39:51.650Z,96099.31
2019-02-28T18:42:20.003Z,96104.55
2019-02-28T18:44:47.475Z,96109.48
2019-02-28T18:47:14.529Z,96105.14
2019-02-28T18:49:41.589Z,96111.08
2019-02-28T18:52:08.699Z,96117.33
2019-02-28T18:54:35.994Z,96115.38
2019-02-28T18:57:03.180Z,96120.63
2019-02-28T18:59:30.215Z,96127.00
2019-02-28T19:01:58.740Z,96127.01
2019-02-28T19:04:26.098Z,96121.12
2019-02-28T19:06:53.182Z,96125.20
2019-02-28T19:09:20.222Z,96133.36
2019-02-28T19:11:47.347Z,96129.28
2019-02-28T19:14:14.905Z,96124.88
2019-02-28T19:16:41.950Z,96121.61
2019-02-28T19:19:09.303Z,96142.35
2019-02-28T19:21:37.681Z,96142.53
2019-02-28T19:24:05.462Z,96137.97
2019-02-28T19:26:32.516Z,96132.58
2019-02-28T19:28:59.850Z,96145.01
2019-02-28T19:31:26.907Z,96140.44
2019-02-28T19:33:54.191Z,96152.20
2019-02-28T19:36:21.563Z,96157.59
2019-02-28T19:38:49.065Z,96156.30
2019-02-28T19:41:17.069Z,96157.92
2019-02-28T19:43:44.197Z,96162.34
2019-02-28T19:46:11.554Z,96157.48
2019-02-28T19:48:38.894Z,96155.70
2019-02-28T19:51:06.172Z,96157.34
2019-02-28T19:53:33.217Z,96138.56
2019-02-28T19:56:00.498Z,96150.81
2019-02-28T19:58:27.801Z,96148.52
2019-02-28T20:00:54.837Z,96149.67
2019-02-28T20:03:22.121Z,96146.73
2019-02-28T20:05:49.173Z,96152.93
2019-02-28T20:08:16.350Z,96140.86
2019-02-28T20:10:43.860Z,96144.94
2019-02-28T20:13:11.300Z,96140.70
2019-02-28T20:15:38.678Z,96134.00
2019-02-28T20:18:05.727Z,96123.57
2019-02-28T20:20:32.764Z,96121.61
2019-02-28T20:23:00.125Z,96110.84
2019-02-28T20:25:27.408Z,96106.59
2019-02-28T20:27:54.458Z,96108.39
2019-02-28T20:30:21.762Z,96105.13
2019-02-28T20:32:49.063Z,96095.34
2019-02-28T20:35:25.907Z,96096.20
2019-02-28T20:37:45.310Z,96114.31
2019-02-28T20:40:14.054Z,96105.00
2019-02-28T20:42:42.340Z,96107.95
2019-02-28T20:45:10.845Z,96112.19
2019-02-28T20:47:38.182Z,96115.59
2019-02-28T20:50:05.462Z,96115.23
2019-02-28T20:52:33.216Z,96124.98
2019-02-28T20:55:00.364Z,96125.96
2019-02-28T20:57:27.433Z,96131.00
2019-02-28T20:59:54.752Z,96130.38
2019-02-28T21:02:21.791Z,96124.68
2019-02-28T21:04:49.153Z,96116.55
2019-02-28T21:07:16.537Z,96115.06
2019-02-28T21:09:45.181Z,96115.09
2019-02-28T21:12:12.511Z,96114.11
2019-02-28T21:14:39.557Z,96112.33
2019-02-28T21:17:06.589Z,96112.01
2019-02-28T21:19:33.641Z,96113.65
2019-02-28T21:22:00.667Z,96118.68
2019-02-28T21:24:27.728Z,96108.76
2019-02-28T21:26:55.061Z,96105.50
2019-02-28T21:29:22.119Z,96108.25
2019-02-28T21:31:49.151Z,96106.77
2019-02-28T21:34:18.438Z,96111.02
2019-02-28T21:36:45.502Z,96118.52
2019-02-28T21:39:12.554Z,96114.44
2019-02-28T21:41:41.462Z,96116.08
2019-02-28T21:44:10.011Z,96107.13
2019-02-28T21:46:37.369Z,96107.45
2019-02-28T21:49:04.826Z,96106.95
2019-02-28T21:51:31.856Z,96097.66
2019-02-28T21:53:59.325Z,96090.48
2019-02-28T21:56:26.806Z,96086.57
2019-02-28T21:58:53.856Z,96092.77
2019-02-28T22:01:20.887Z,96085.59
2019-02-28T22:03:48.355Z,96080.86
2019-02-28T22:06:15.693Z,96081.67
2019-02-28T22:08:43.064Z,96067.66
2019-02-28T22:11:10.402Z,96072.88
2019-02-28T22:13:37.452Z,96071.10
2019-02-28T22:16:04.748Z,96071.89
2019-02-28T22:18:31.791Z,96063.91
2019-02-28T22:20:59.129Z,96056.41
2019-02-28T22:23:26.180Z,96054.94
2019-02-28T22:25:53.481Z,96066.21
2019-02-28T22:28:20.513Z,96053.80
2019-02-28T22:30:47.565Z,96055.75
2019-02-28T22:33:14.601Z,96051.84
2019-02-28T22:35:42.717Z,96049.72
2019-02-28T22:38:09.994Z,96039.45
2019-02-28T22:40:37.173Z,96039.61
2019-02-28T22:43:04.809Z,96040.42
2019-02-28T22:45:31.862Z,96037.00
2019-02-28T22:47:59.214Z,96040.42
2019-02-28T22:50:26.285Z,96041.89
2019-02-28T22:52:53.316Z,96041.72
2019-02-28T22:55:20.364Z,96046.30
2019-02-28T22:57:47.692Z,96034.39
2019-02-28T23:00:15.048Z,96028.36
2019-02-28T23:02:42.151Z,96036.18
2019-02-28T23:05:09.198Z,96031.62
2019-02-28T23:07:36.477Z,96039.44
2019-02-28T23:10:03.529Z,96031.78
2019-02-28T23:12:30.633Z,96027.38
2019-02-28T23:14:57.689Z,96025.91
2019-02-28T23:17:24.725Z,96025.59
2019-02-28T23:19:51.769Z,96024.77
2019-02-28T23:22:19.112Z,96011.88
2019-02-28T23:24:46.157Z,96016.28
2019-02-28T23:27:13.192Z,96006.17
2019-02-28T23:29:41.569Z,96008.13
2019-02-28T23:32:08.604Z,96005.20
2019-02-28T23:34:35.974Z,95996.88
2019-02-28T23:37:03.004Z,95992.00
2019-02-28T23:39:30.375Z,95988.89
2019-02-28T23:41:57.642Z,95989.22
2019-02-28T23:44:24.986Z,95988.89
2019-02-28T23:46:52.038Z,95983.19
2019-02-28T23:49:19.800Z,95985.97
2019-02-28T23:51:46.843Z,95989.27
2019-02-28T23:54:14.129Z,95985.68
2019-02-28T23:56:41.164Z,95982.41
2019-02-28T23:59:08.515Z,95956.83
